createdAt,value
2022-12-22T00:02:40.220Z,0.13
2022-12-22T00:05:33.094Z,0.10
2022-12-22T00:08:18.430Z,0.00
2022-12-22T00:11:05.667Z,0.82
2022-12-22T00:13:50.779Z,0.05
2022-12-22T00:16:36.040Z,0.30
2022-12-22T00:19:21.407Z,0.00
2022-12-22T00:22:06.671Z,0.22
2022-12-22T00:24:51.813Z,0.13
2022-12-22T00:27:45.829Z,0.00
2022-12-22T00:30:31.916Z,0.00
2022-12-22T00:33:17.543Z,0.50
2022-12-22T00:36:02.720Z,0.10
2022-12-22T00:38:48.275Z,0.15
2022-12-22T00:41:33.227Z,0.00
2022-12-22T00:44:19.776Z,0.00
2022-12-22T00:47:05.309Z,0.30
2022-12-22T00:49:51.578Z,0.17
2022-12-22T00:52:37.997Z,0.30
2022-12-22T00:55:31.295Z,0.00
2022-12-22T00:58:16.680Z,0.15
2022-12-22T01:01:03.442Z,0.00
2022-12-22T01:03:48.907Z,0.10
2022-12-22T01:06:34.163Z,0.00
2022-12-22T01:09:19.255Z,0.00
2022-12-22T01:12:04.716Z,0.10
2022-12-22T01:14:49.812Z,0.10
2022-12-22T01:17:36.124Z,0.00
2022-12-22T01:20:21.447Z,0.85
2022-12-22T01:23:06.658Z,0.20
2022-12-22T01:25:51.623Z,0.00
2022-12-22T01:28:36.838Z,0.10
2022-12-22T01:31:35.055Z,0.30
2022-12-22T01:34:21.561Z,0.00
2022-12-22T01:37:06.775Z,0.22
2022-12-22T01:39:51.992Z,0.50
2022-12-22T01:42:37.362Z,0.08
2022-12-22T01:45:37.464Z,0.30
2022-12-22T01:48:23.115Z,0.00
2022-12-22T01:51:09.716Z,0.00
2022-12-22T01:53:54.687Z,0.00
2022-12-22T01:56:40.265Z,0.00
2022-12-22T01:59:25.287Z,0.30
2022-12-22T02:02:10.817Z,0.40
2022-12-22T02:05:00.092Z,0.00
2022-12-22T02:08:00.253Z,0.40
2022-12-22T02:10:58.277Z,0.00
2022-12-22T02:13:51.058Z,0.20
2022-12-22T02:16:39.216Z,0.10
2022-12-22T02:19:31.194Z,0.00
2022-12-22T02:22:22.747Z,0.00
2022-12-22T02:25:15.608Z,0.00
2022-12-22T02:28:02.968Z,0.20
2022-12-22T02:30:49.731Z,0.00
2022-12-22T02:33:35.010Z,0.50
2022-12-22T02:36:23.575Z,0.40
2022-12-22T02:39:15.532Z,0.17
2022-12-22T02:42:05.126Z,0.10
2022-12-22T02:44:58.758Z,0.08
2022-12-22T02:47:48.268Z,0.40
2022-12-22T02:50:38.494Z,0.20
2022-12-22T02:53:24.462Z,0.50
2022-12-22T02:56:16.743Z,0.10
2022-12-22T02:59:02.046Z,0.30
2022-12-22T03:01:48.821Z,0.00
2022-12-22T03:04:34.310Z,0.15
2022-12-22T03:07:19.554Z,0.00
2022-12-22T03:10:04.700Z,0.20
2022-12-22T03:12:49.817Z,0.00
2022-12-22T03:15:35.048Z,0.20
2022-12-22T03:18:22.587Z,0.05
2022-12-22T03:21:07.653Z,0.10
2022-12-22T03:23:52.987Z,0.20
2022-12-22T03:26:20.519Z,0.00
2022-12-22T03:28:48.143Z,0.00
2022-12-22T03:31:15.669Z,0.08
2022-12-22T03:33:44.758Z,0.10
2022-12-22T03:36:12.622Z,0.00
2022-12-22T03:38:40.333Z,0.00
2022-12-22T03:41:07.903Z,0.10
2022-12-22T03:44:07.958Z,0.10
2022-12-22T03:46:35.730Z,0.00
2022-12-22T03:49:12.099Z,0.20
2022-12-22T03:51:42.808Z,0.20
2022-12-22T03:54:11.290Z,0.15
2022-12-22T03:56:39.392Z,0.10
2022-12-22T03:59:07.036Z,0.20
2022-12-22T04:01:38.008Z,0.00
2022-12-22T04:04:07.296Z,0.00
2022-12-22T04:06:35.023Z,0.00
2022-12-22T04:09:03.329Z,0.00
2022-12-22T04:11:49.031Z,0.00
2022-12-22T04:14:16.662Z,0.10
2022-12-22T04:16:44.437Z,0.00
2022-12-22T04:19:13.471Z,0.40
2022-12-22T04:21:41.043Z,0.00
2022-12-22T04:24:09.312Z,0.10
2022-12-22T04:26:36.985Z,0.00
2022-12-22T04:29:04.757Z,0.00
2022-12-22T04:31:32.349Z,0.00
2022-12-22T04:33:59.933Z,0.25
2022-12-22T04:36:28.980Z,0.30
2022-12-22T04:38:56.535Z,0.10
2022-12-22T04:41:24.045Z,0.50
2022-12-22T04:43:51.774Z,0.08
2022-12-22T04:46:19.399Z,0.00
2022-12-22T04:48:47.202Z,0.32
2022-12-22T04:51:14.930Z,0.30
2022-12-22T04:53:43.829Z,0.00
2022-12-22T04:56:11.366Z,0.30
2022-12-22T04:58:39.052Z,0.20
2022-12-22T05:01:11.061Z,0.60
2022-12-22T05:03:38.683Z,0.00
2022-12-22T05:06:06.763Z,0.00
2022-12-22T05:08:34.638Z,0.22
2022-12-22T05:11:04.016Z,0.00
2022-12-22T05:13:32.639Z,0.20
2022-12-22T05:16:06.069Z,0.40
2022-12-22T05:18:33.794Z,0.00
2022-12-22T05:21:03.905Z,0.00
2022-12-22T05:23:31.569Z,0.10
2022-12-22T05:25:59.085Z,0.00
2022-12-22T05:28:28.184Z,0.00
2022-12-22T05:30:56.080Z,0.00
2022-12-22T05:33:23.746Z,0.90
2022-12-22T05:35:51.259Z,0.43
2022-12-22T05:38:18.775Z,0.00
2022-12-22T05:40:46.334Z,0.57
2022-12-22T05:43:13.828Z,0.00
2022-12-22T05:45:42.947Z,0.00
2022-12-22T05:48:10.655Z,0.00
2022-12-22T05:50:38.273Z,0.10
2022-12-22T05:53:06.528Z,0.30
2022-12-22T05:55:34.820Z,0.65
2022-12-22T05:58:02.762Z,0.10
2022-12-22T06:00:31.625Z,0.60
2022-12-22T06:03:00.805Z,0.22
2022-12-22T06:05:28.557Z,0.32
2022-12-22T06:07:56.239Z,0.20
2022-12-22T06:10:24.229Z,0.10
2022-12-22T06:12:52.176Z,0.30
2022-12-22T06:15:19.846Z,0.05
2022-12-22T06:17:47.573Z,0.20
2022-12-22T06:20:16.616Z,0.00
2022-12-22T06:22:44.301Z,0.08
2022-12-22T06:25:17.605Z,0.00
2022-12-22T06:27:46.308Z,0.20
2022-12-22T06:30:14.747Z,0.10
2022-12-22T06:32:42.525Z,0.10
2022-12-22T06:35:11.194Z,0.20
2022-12-22T06:37:40.425Z,1.00
2022-12-22T06:40:09.377Z,0.10
2022-12-22T06:42:54.753Z,0.00
2022-12-22T06:45:22.331Z,0.28
2022-12-22T06:47:49.805Z,0.60
2022-12-22T06:50:17.792Z,0.30
2022-12-22T06:52:46.873Z,0.00
2022-12-22T06:55:14.580Z,1.20
2022-12-22T06:57:42.297Z,0.65
2022-12-22T07:00:12.104Z,0.47
2022-12-22T07:02:39.842Z,0.20
2022-12-22T07:05:08.304Z,0.20
2022-12-22T07:07:36.036Z,1.30
2022-12-22T07:10:05.741Z,1.00
2022-12-22T07:12:33.242Z,0.30
2022-12-22T07:15:00.951Z,0.75
2022-12-22T07:17:28.656Z,0.00
2022-12-22T07:19:56.332Z,0.05
2022-12-22T07:22:29.554Z,0.35
2022-12-22T07:24:57.877Z,0.20
2022-12-22T07:27:26.891Z,0.40
2022-12-22T07:29:54.402Z,0.08
2022-12-22T07:32:22.089Z,0.03
2022-12-22T07:34:49.847Z,0.70
2022-12-22T07:37:17.629Z,0.20
2022-12-22T07:39:45.184Z,1.00
2022-12-22T07:42:30.741Z,0.25
2022-12-22T07:44:59.866Z,0.82
2022-12-22T07:47:33.214Z,0.40
2022-12-22T07:50:20.253Z,0.03
2022-12-22T07:52:47.782Z,0.10
2022-12-22T07:55:15.649Z,0.65
2022-12-22T07:57:43.193Z,0.45
2022-12-22T08:00:14.076Z,0.00
2022-12-22T08:02:42.203Z,0.30
2022-12-22T08:05:10.738Z,0.50
2022-12-22T08:07:38.365Z,0.50
2022-12-22T08:10:06.521Z,0.77
2022-12-22T08:12:34.283Z,1.58
2022-12-22T08:15:01.879Z,0.00
2022-12-22T08:17:31.054Z,0.30
2022-12-22T08:19:58.888Z,0.40
2022-12-22T08:22:26.527Z,1.10
2022-12-22T08:24:55.065Z,0.35
2022-12-22T08:27:26.481Z,0.80
2022-12-22T08:29:56.719Z,0.40
2022-12-22T08:32:24.307Z,0.00
2022-12-22T08:34:54.206Z,0.47
2022-12-22T08:37:24.485Z,0.05
2022-12-22T08:39:55.654Z,0.30
2022-12-22T08:42:23.772Z,0.20
2022-12-22T08:44:53.390Z,0.07
2022-12-22T08:47:21.702Z,1.10
2022-12-22T08:49:49.949Z,0.50
2022-12-22T08:52:19.481Z,0.15
2022-12-22T08:54:47.559Z,0.20
2022-12-22T08:57:15.326Z,0.30
2022-12-22T08:59:43.082Z,0.40
2022-12-22T09:02:10.755Z,0.95
2022-12-22T09:04:38.874Z,0.70
2022-12-22T09:07:06.524Z,0.80
2022-12-22T09:09:35.731Z,0.00
2022-12-22T09:12:04.021Z,0.13
2022-12-22T09:14:32.702Z,0.30
2022-12-22T09:17:00.633Z,0.47
2022-12-22T09:19:28.412Z,0.43
2022-12-22T09:21:56.411Z,1.10
2022-12-22T09:24:24.088Z,1.23
2022-12-22T09:26:53.013Z,1.20
2022-12-22T09:29:20.523Z,0.30
2022-12-22T09:31:48.342Z,0.40
2022-12-22T09:34:18.533Z,0.60
2022-12-22T09:36:46.696Z,0.93
2022-12-22T09:39:14.913Z,0.10
2022-12-22T09:41:45.373Z,0.00
2022-12-22T09:44:19.843Z,0.10
2022-12-22T09:46:47.665Z,0.10
2022-12-22T09:49:17.168Z,0.40
2022-12-22T09:51:45.995Z,0.50
2022-12-22T09:54:14.821Z,2.13
2022-12-22T09:56:42.826Z,0.25
2022-12-22T09:59:12.414Z,0.30
2022-12-22T10:01:58.229Z,0.75
2022-12-22T10:04:38.876Z,1.60
2022-12-22T10:07:16.784Z,0.08
2022-12-22T10:09:52.245Z,0.20
2022-12-22T10:12:22.374Z,0.00
2022-12-22T10:14:52.047Z,0.40
2022-12-22T10:17:24.089Z,0.30
2022-12-22T10:19:53.103Z,0.40
2022-12-22T10:22:26.901Z,0.10
2022-12-22T10:24:54.803Z,0.40
2022-12-22T10:27:28.440Z,0.00
2022-12-22T10:30:21.525Z,0.00
2022-12-22T10:33:10.549Z,0.30
2022-12-22T10:35:49.854Z,0.77
2022-12-22T10:38:22.119Z,0.90
2022-12-22T10:40:56.721Z,0.40
2022-12-22T10:43:31.000Z,0.40
2022-12-22T10:45:59.353Z,0.00
2022-12-22T10:48:29.969Z,0.70
2022-12-22T10:50:58.621Z,0.40
2022-12-22T10:53:40.466Z,0.50
2022-12-22T10:56:09.063Z,0.20
2022-12-22T10:58:49.614Z,0.90
2022-12-22T11:01:25.257Z,0.80
2022-12-22T11:03:54.562Z,0.50
2022-12-22T11:06:22.438Z,0.10
2022-12-22T11:08:51.816Z,0.22
2022-12-22T11:11:35.061Z,0.60
2022-12-22T11:14:12.481Z,0.50
2022-12-22T11:16:45.022Z,1.73
2022-12-22T11:19:28.044Z,0.20
2022-12-22T11:22:00.841Z,0.00
2022-12-22T11:24:37.578Z,0.10
2022-12-22T11:27:19.387Z,0.10
2022-12-22T11:30:05.010Z,0.20
2022-12-22T11:32:49.665Z,1.02
2022-12-22T11:35:27.462Z,0.65
2022-12-22T11:37:58.976Z,0.50
2022-12-22T11:40:32.686Z,0.60
2022-12-22T11:43:19.487Z,0.10
2022-12-22T11:46:00.875Z,0.10
2022-12-22T11:48:50.720Z,0.80
2022-12-22T11:51:28.025Z,0.50
2022-12-22T11:54:14.052Z,1.45
2022-12-22T11:56:42.653Z,0.63
2022-12-22T11:59:21.824Z,0.60
2022-12-22T12:02:23.353Z,0.10
2022-12-22T12:05:32.690Z,0.30
2022-12-22T12:08:07.255Z,0.60
2022-12-22T12:10:39.420Z,0.60
2022-12-22T12:13:11.668Z,0.80
2022-12-22T12:15:42.432Z,0.43
2022-12-22T12:18:38.233Z,0.45
2022-12-22T12:21:21.444Z,0.07
2022-12-22T12:24:08.700Z,0.17
2022-12-22T12:26:41.316Z,0.97
2022-12-22T12:29:16.094Z,0.08
2022-12-22T12:31:45.337Z,0.80
2022-12-22T12:34:16.719Z,0.50
2022-12-22T12:36:48.645Z,0.35
2022-12-22T12:39:22.522Z,0.95
2022-12-22T12:41:57.565Z,0.50
2022-12-22T12:44:28.227Z,0.50
2022-12-22T12:47:00.435Z,0.20
2022-12-22T12:50:00.033Z,0.35
2022-12-22T12:53:04.882Z,0.50
2022-12-22T12:55:36.095Z,0.20
2022-12-22T12:58:05.169Z,0.82
2022-12-22T13:00:49.904Z,0.57
2022-12-22T13:06:51.053Z,0.50
2022-12-22T13:12:38.924Z,0.10
2022-12-22T13:15:28.464Z,0.00
2022-12-22T13:17:58.041Z,0.20
2022-12-22T13:20:28.663Z,0.70
2022-12-22T13:22:58.322Z,0.00
2022-12-22T13:25:28.642Z,0.08
2022-12-22T13:27:58.631Z,0.40
2022-12-22T13:30:29.521Z,0.10
2022-12-22T13:32:57.979Z,0.30
2022-12-22T13:35:44.799Z,0.60
2022-12-22T13:38:30.318Z,1.02
2022-12-22T13:40:58.979Z,0.60
2022-12-22T13:43:28.691Z,1.30
2022-12-22T13:45:57.715Z,1.40
2022-12-22T13:48:27.871Z,0.20
2022-12-22T13:50:57.545Z,1.70
2022-12-22T13:56:22.440Z,1.10
2022-12-22T13:58:56.787Z,0.00
2022-12-22T14:01:24.603Z,0.30
2022-12-22T14:04:01.779Z,0.30
2022-12-22T14:06:33.493Z,0.00
2022-12-22T14:09:14.639Z,0.35
2022-12-22T14:11:50.789Z,0.00
2022-12-22T14:14:23.375Z,0.40
2022-12-22T14:16:52.302Z,0.70
2022-12-22T14:19:21.893Z,0.38
2022-12-22T14:21:52.158Z,0.20
2022-12-22T14:24:21.937Z,2.33
2022-12-22T14:26:49.783Z,0.20
2022-12-22T14:29:22.485Z,0.60
2022-12-22T14:31:55.074Z,0.15
2022-12-22T14:34:27.705Z,0.82
2022-12-22T14:36:58.943Z,1.25
2022-12-22T14:39:28.403Z,2.10
2022-12-22T14:41:58.145Z,3.47
2022-12-22T14:44:31.232Z,4.13
2022-12-22T14:47:07.168Z,5.30
2022-12-22T14:49:35.947Z,6.45
2022-12-22T14:52:08.579Z,8.02
2022-12-22T14:54:36.247Z,8.45
2022-12-22T14:57:13.367Z,8.90
2022-12-22T15:00:02.337Z,9.77
2022-12-22T15:02:38.600Z,8.93
2022-12-22T15:05:24.436Z,9.10
2022-12-22T15:08:05.932Z,9.30
2022-12-22T15:10:39.848Z,8.98
2022-12-22T15:13:13.497Z,9.52
2022-12-22T15:15:43.674Z,10.30
2022-12-22T15:18:13.592Z,10.63
2022-12-22T15:20:41.266Z,10.30
2022-12-22T15:23:12.352Z,10.60
2022-12-22T15:25:39.942Z,11.90
2022-12-22T15:28:07.625Z,11.00
2022-12-22T15:30:35.286Z,11.27
2022-12-22T15:33:04.453Z,11.10
2022-12-22T15:35:33.689Z,11.95
2022-12-22T15:38:02.383Z,11.73
2022-12-22T15:40:30.403Z,12.02
2022-12-22T15:42:57.945Z,12.98
2022-12-22T15:45:25.577Z,13.02
2022-12-22T15:47:54.963Z,12.50
2022-12-22T15:50:26.077Z,12.82
2022-12-22T15:52:55.196Z,12.73
2022-12-22T15:55:25.420Z,13.05
2022-12-22T15:57:55.069Z,12.70
2022-12-22T16:00:23.678Z,12.27
2022-12-22T16:02:52.099Z,12.35
2022-12-22T16:05:19.755Z,13.05
2022-12-22T16:07:49.054Z,13.90
2022-12-22T16:10:23.353Z,13.60
2022-12-22T16:12:54.598Z,13.90
2022-12-22T16:15:22.917Z,20.63
2022-12-22T16:17:52.107Z,15.43
2022-12-22T16:20:20.928Z,14.30
2022-12-22T16:22:51.316Z,14.70
2022-12-22T16:25:23.954Z,14.85
2022-12-22T16:27:51.869Z,14.25
2022-12-22T16:30:21.137Z,13.67
2022-12-22T16:32:49.139Z,13.60
2022-12-22T16:35:19.263Z,13.75
2022-12-22T16:37:48.878Z,14.10
2022-12-22T16:40:20.536Z,13.70
2022-12-22T16:45:37.389Z,14.10
2022-12-22T16:48:07.538Z,13.60
2022-12-22T16:50:35.167Z,13.85
2022-12-22T16:53:05.381Z,14.15
2022-12-22T16:55:36.075Z,14.20
2022-12-22T16:58:12.913Z,15.45
2022-12-22T17:00:42.303Z,15.20
2022-12-22T17:03:14.272Z,15.30
2022-12-22T17:05:44.988Z,14.98
2022-12-22T17:08:20.673Z,15.95
2022-12-22T17:10:49.890Z,15.38
2022-12-22T17:13:17.735Z,15.48
2022-12-22T17:15:45.397Z,15.97
2022-12-22T17:18:17.713Z,16.95
2022-12-22T17:20:45.702Z,15.52
2022-12-22T17:23:27.929Z,16.30
2022-12-22T17:25:57.068Z,17.63
2022-12-22T17:28:43.361Z,17.15
2022-12-22T17:31:15.459Z,17.80
2022-12-22T17:33:43.243Z,17.83
2022-12-22T17:36:18.660Z,17.95
2022-12-22T17:38:46.792Z,18.20
2022-12-22T17:41:15.598Z,17.17
2022-12-22T17:43:45.359Z,17.63
2022-12-22T17:46:17.957Z,19.13
2022-12-22T17:48:46.073Z,17.95
2022-12-22T17:51:22.194Z,16.75
2022-12-22T17:53:50.315Z,17.73
2022-12-22T17:56:20.118Z,17.52
2022-12-22T17:58:49.562Z,17.98
2022-12-22T18:01:25.527Z,17.77
2022-12-22T18:03:57.420Z,18.60
2022-12-22T18:06:28.645Z,18.83
2022-12-22T18:08:57.309Z,19.05
2022-12-22T18:11:25.990Z,18.33
2022-12-22T18:13:57.240Z,19.00
2022-12-22T18:16:25.156Z,18.40
2022-12-22T18:18:53.085Z,18.85
2022-12-22T18:21:22.200Z,17.00
2022-12-22T18:23:51.078Z,17.80
2022-12-22T18:26:23.787Z,17.80
2022-12-22T18:28:51.589Z,17.23
2022-12-22T18:31:21.025Z,18.55
2022-12-22T18:33:48.866Z,18.00
2022-12-22T18:36:19.337Z,17.05
2022-12-22T18:38:48.299Z,17.67
2022-12-22T18:41:20.506Z,18.15
2022-12-22T18:43:48.082Z,17.58
2022-12-22T18:46:15.754Z,17.20
2022-12-22T18:48:44.780Z,17.25
2022-12-22T18:51:19.490Z,17.15
2022-12-22T18:53:47.478Z,17.60
2022-12-22T18:56:15.656Z,17.20
2022-12-22T18:58:43.478Z,16.65
2022-12-22T19:01:19.108Z,16.93
2022-12-22T19:03:48.579Z,18.30
2022-12-22T19:06:17.430Z,18.63
2022-12-22T19:08:47.368Z,17.63
2022-12-22T19:11:16.344Z,17.90
2022-12-22T19:13:45.486Z,17.45
2022-12-22T19:16:14.873Z,17.17
2022-12-22T19:18:43.011Z,17.97
2022-12-22T19:21:14.327Z,16.70
2022-12-22T19:23:42.107Z,16.67
2022-12-22T19:26:19.308Z,16.92
2022-12-22T19:28:47.072Z,16.50
2022-12-22T19:31:22.006Z,15.85
2022-12-22T19:33:50.503Z,15.60
2022-12-22T19:36:22.403Z,16.77
2022-12-22T19:38:51.020Z,16.52
2022-12-22T19:41:30.089Z,16.15
2022-12-22T19:43:57.785Z,14.98
2022-12-22T19:46:27.177Z,15.45
2022-12-22T19:48:56.404Z,14.32
2022-12-22T19:51:25.354Z,14.90
2022-12-22T19:53:52.942Z,11.77
2022-12-22T19:56:23.493Z,11.35
2022-12-22T19:58:51.197Z,10.90
2022-12-22T20:01:19.048Z,9.98
2022-12-22T20:03:47.089Z,9.85
2022-12-22T20:06:14.926Z,0.38
2022-12-22T20:08:44.736Z,0.50
2022-12-22T20:11:15.047Z,0.40
2022-12-22T20:13:43.364Z,0.40
2022-12-22T20:16:14.033Z,0.70
2022-12-22T20:18:42.718Z,1.38
2022-12-22T20:21:14.159Z,0.20
2022-12-22T20:23:41.882Z,1.10
2022-12-22T20:26:15.848Z,0.73
2022-12-22T20:28:43.428Z,1.00
2022-12-22T20:31:14.228Z,1.50
2022-12-22T20:33:42.240Z,0.50
2022-12-22T20:36:17.256Z,0.40
2022-12-22T20:38:45.937Z,0.40
2022-12-22T20:41:14.868Z,0.40
2022-12-22T20:43:42.785Z,0.40
2022-12-22T20:46:15.487Z,0.40
2022-12-22T20:48:45.411Z,0.10
2022-12-22T20:51:15.744Z,0.65
2022-12-22T20:53:44.607Z,0.30
2022-12-22T20:56:19.883Z,0.20
2022-12-22T20:58:47.725Z,0.30
2022-12-22T21:01:16.586Z,0.30
2022-12-22T21:03:44.596Z,0.40
2022-12-22T21:06:23.992Z,0.00
2022-12-22T21:08:51.918Z,0.08
2022-12-22T21:11:20.967Z,0.45
2022-12-22T21:13:48.444Z,0.05
2022-12-22T21:16:18.375Z,0.00
2022-12-22T21:18:46.519Z,0.00
2022-12-22T21:21:14.896Z,0.00
2022-12-22T21:23:42.499Z,0.00
2022-12-22T21:26:19.380Z,0.00
2022-12-22T21:28:48.518Z,0.20
2022-12-22T21:31:16.505Z,0.60
2022-12-22T21:33:45.301Z,0.40
2022-12-22T21:36:18.922Z,0.40
2022-12-22T21:38:47.332Z,0.00
2022-12-22T21:41:14.873Z,0.00
2022-12-22T21:43:43.339Z,0.00
2022-12-22T21:46:13.861Z,0.20
2022-12-22T21:48:41.533Z,0.10
2022-12-22T21:51:12.887Z,0.15
2022-12-22T21:53:40.585Z,0.25
2022-12-22T21:56:17.136Z,0.00
2022-12-22T21:58:45.151Z,0.00
2022-12-22T22:01:16.198Z,0.20
2022-12-22T22:03:43.840Z,0.07
2022-12-22T22:06:11.412Z,0.00
2022-12-22T22:08:39.077Z,0.90
2022-12-22T22:11:12.895Z,0.10
2022-12-22T22:13:40.593Z,0.32
2022-12-22T22:16:09.355Z,0.00
2022-12-22T22:18:38.888Z,0.10
2022-12-22T22:21:08.479Z,0.00
2022-12-22T22:23:36.421Z,0.17
2022-12-22T22:26:04.491Z,0.00
2022-12-22T22:28:32.536Z,1.10
2022-12-22T22:31:00.343Z,0.03
2022-12-22T22:33:28.052Z,0.40
2022-12-22T22:36:00.721Z,0.30
2022-12-22T22:38:33.091Z,0.10
2022-12-22T22:41:00.676Z,0.95
2022-12-22T22:43:28.340Z,0.00
2022-12-22T22:45:56.060Z,0.00
2022-12-22T22:48:24.025Z,0.10
2022-12-22T22:50:51.964Z,0.30
2022-12-22T22:53:20.836Z,0.00
2022-12-22T22:55:48.385Z,0.57
2022-12-22T22:58:16.172Z,1.13
2022-12-22T23:00:43.863Z,0.30
2022-12-22T23:03:11.483Z,0.00
2022-12-22T23:05:39.121Z,0.00
2022-12-22T23:08:06.683Z,2.30
2022-12-22T23:10:41.277Z,0.80
2022-12-22T23:13:09.437Z,0.00
2022-12-22T23:15:36.982Z,0.50
2022-12-22T23:18:05.008Z,0.00
2022-12-22T23:20:32.672Z,0.22
2022-12-22T23:23:00.385Z,0.40
2022-12-22T23:25:28.135Z,0.10
2022-12-22T23:27:57.329Z,0.00
2022-12-22T23:30:25.270Z,0.00
2022-12-22T23:32:53.024Z,0.70
2022-12-22T23:35:20.566Z,0.00
2022-12-22T23:37:48.095Z,0.10
2022-12-22T23:40:50.528Z,0.00
2022-12-22T23:43:05.947Z,0.05
2022-12-22T23:45:34.011Z,0.10
2022-12-22T23:48:01.741Z,1.70
2022-12-22T23:50:29.530Z,0.00
2022-12-22T23:52:57.339Z,0.80
2022-12-22T23:55:25.099Z,0.70
2022-12-22T23:57:53.527Z,0.20
